Time;durP1;ratioP1;P1;durP2;ratioP2;P2;SDS_P1;SDS_P2;PMS_P1;PMS_P2;Temp;Humidity;BMP_temperature;BMP_pressure;BME280_temperature;BME280_humidity;BME280_pressure;Samples;Min_cycle;Max_cycle;Signal;HPM_P1;HPM_P2
2022/03/22 00:00:45;;;;;;;45.08;28.75;;;;;;;;;;5049844;28;20503;-69
2022/03/22 00:03:11;;;;;;;43.28;26.55;;;;;;;;;;5050360;28;20118;-69
2022/03/22 00:05:42;;;;;;;44.42;27.65;;;7.70;99.90;;;;;;5050173;28;20060;-69
2022/03/22 00:08:09;;;;;;;43.85;27.33;;;7.80;99.90;;;;;;5052504;28;20052;-68
2022/03/22 00:10:36;;;;;;;45.90;27.67;;;;;;;;;;5037252;28;20044;-69
2022/03/22 00:13:03;;;;;;;48.83;29.20;;;7.70;99.90;;;;;;5054129;28;20047;-69
2022/03/22 00:15:29;;;;;;;45.22;26.63;;;7.70;99.90;;;;;;5055152;28;20503;-69
2022/03/22 00:17:55;;;;;;;42.65;26.63;;;7.70;99.90;;;;;;5054040;28;20045;-69
2022/03/22 00:20:20;;;;;;;45.00;27.42;;;7.70;99.90;;;;;;5052089;28;20048;-69
2022/03/22 00:22:48;;;;;;;45.83;27.98;;;7.70;99.90;;;;;;5017218;28;20091;-69
2022/03/22 00:25:16;;;;;;;49.90;28.77;;;7.40;99.90;;;;;;5033762;28;20495;-69
2022/03/22 00:27:52;;;;;;;46.53;28.17;;;;;;;;;;5033544;28;20518;-69
2022/03/22 00:30:20;;;;;;;46.25;27.10;;;7.60;99.90;;;;;;5033355;28;20113;-69
2022/03/22 00:32:46;;;;;;;46.50;28.33;;;;;;;;;;5017107;28;20036;-69
2022/03/22 00:35:12;;;;;;;48.58;28.63;;;7.60;99.90;;;;;;5046294;28;20482;-69
2022/03/22 00:37:42;;;;;;;49.80;28.88;;;;;;;;;;5053301;28;20045;-69
2022/03/22 00:40:11;;;;;;;43.13;26.40;;;7.50;99.90;;;;;;5052998;28;20502;-69
2022/03/22 00:42:37;;;;;;;46.10;27.98;;;;;;;;;;5053208;28;20470;-69
2022/03/22 00:45:04;;;;;;;47.65;29.15;;;;;;;;;;5053230;28;20072;-69
2022/03/22 00:47:30;;;;;;;46.70;28.92;;;;;;;;;;5052914;28;20063;-69
2022/03/22 00:49:56;;;;;;;46.63;29.25;;;;;;;;;;5053083;28;20032;-69
2022/03/22 00:52:21;;;;;;;47.53;29.45;;;7.50;99.90;;;;;;5053195;28;20124;-69
2022/03/22 00:54:47;;;;;;;48.97;30.52;;;7.50;99.90;;;;;;5053318;28;20179;-69
2022/03/22 00:57:12;;;;;;;49.90;29.63;;;7.40;99.90;;;;;;5053336;28;20052;-69
2022/03/22 01:02:23;;;;;;;47.88;28.80;;;;;;;;;;5052896;28;20182;-69
2022/03/22 01:04:49;;;;;;;43.72;26.92;;;;;;;;;;5051145;28;20131;-69
2022/03/22 01:07:15;;;;;;;47.17;28.17;;;;;;;;;;5052370;28;20045;-70
2022/03/22 01:09:41;;;;;;;45.83;28.58;;;;;;;;;;5052545;28;20041;-69
2022/03/22 01:12:07;;;;;;;46.22;29.60;;;;;;;;;;5036343;28;20526;-69
2022/03/22 01:14:34;;;;;;;45.70;27.85;;;7.40;99.90;;;;;;5035829;28;20135;-68
2022/03/22 01:16:59;;;;;;;51.53;29.65;;;7.50;99.90;;;;;;5052337;28;20496;-68
2022/03/22 01:19:25;;;;;;;50.83;30.02;;;;;;;;;;5035462;28;20175;-68
2022/03/22 01:21:51;;;;;;;48.55;27.83;;;7.50;99.90;;;;;;5038686;28;20095;-69
2022/03/22 01:24:17;;;;;;;48.67;29.17;;;7.40;99.90;;;;;;5032391;28;20517;-67
2022/03/22 01:26:43;;;;;;;48.65;29.75;;;7.40;99.90;;;;;;5032389;28;20037;-69
2022/03/22 01:29:11;;;;;;;55.00;31.98;;;7.40;99.90;;;;;;5032025;28;20037;-68
2022/03/22 01:31:37;;;;;;;48.42;30.05;;;7.20;99.90;;;;;;5032397;28;20095;-69
2022/03/22 01:34:03;;;;;;;50.92;29.83;;;;;;;;;;5035719;28;20037;-69
2022/03/22 01:36:31;;;;;;;47.80;29.52;;;7.30;99.90;;;;;;5052219;28;20080;-69
2022/03/22 01:38:57;;;;;;;46.15;28.98;;;;;;;;;;5052331;28;20049;-69
2022/03/22 01:41:23;;;;;;;48.17;28.58;;;7.30;99.90;;;;;;5052190;28;20047;-69
2022/03/22 01:43:49;;;;;;;46.25;28.10;;;;;;;;;;5051972;28;20041;-68
2022/03/22 01:46:16;;;;;;;47.58;28.38;;;7.10;99.90;;;;;;5051629;28;20037;-69
2022/03/22 01:48:42;;;;;;;46.50;29.80;;;7.20;99.90;;;;;;5051898;28;20055;-69
2022/03/22 01:51:09;;;;;;;48.17;28.98;;;7.00;99.90;;;;;;5035060;28;20041;-68
2022/03/22 01:53:36;;;;;;;52.95;30.75;;;7.00;99.90;;;;;;5051966;28;20224;-69
2022/03/22 01:56:02;;;;;;;50.20;30.48;;;;;;;;;;5051861;28;20041;-69
2022/03/22 01:58:28;;;;;;;50.00;30.52;;;;;;;;;;5051573;28;20400;-69
2022/03/22 02:05:51;;;;;;;56.63;30.30;;;;;;;;;;5051666;28;20044;-69
2022/03/22 02:06:35;;;;;;;47.33;28.27;;;7.10;99.90;;;;;;5051665;28;20406;-68
2022/03/22 02:09:02;;;;;;;51.80;31.73;;;6.90;99.90;;;;;;5051618;28;20445;-68
2022/03/22 02:11:28;;;;;;;50.97;29.42;;;6.90;99.90;;;;;;5051427;28;20037;-68
2022/03/22 02:13:54;;;;;;;51.95;31.35;;;;;;;;;;5051769;28;20441;-69
2022/03/22 02:16:21;;;;;;;54.13;31.15;;;;;;;;;;5051535;28;20522;-69
2022/03/22 02:18:49;;;;;;;50.20;30.27;;;7.10;99.90;;;;;;5051340;28;20052;-69
2022/03/22 02:21:15;;;;;;;50.58;29.65;;;7.00;99.90;;;;;;5042412;28;20057;-69
2022/03/22 02:23:41;;;;;;;48.65;30.42;;;;;;;;;;5031704;28;20519;-69
2022/03/22 02:26:07;;;;;;;52.45;30.55;;;;;;;;;;5031346;28;20045;-69
2022/03/22 02:28:33;;;;;;;54.95;31.38;;;;;;;;;;5030975;28;20053;-69
2022/03/22 02:30:58;;;;;;;47.58;30.23;;;7.10;99.90;;;;;;5030365;28;20049;-69
2022/03/22 02:33:24;;;;;;;52.88;31.90;;;;;;;;;;5031144;28;20040;-69
2022/03/22 02:35:50;;;;;;;50.22;31.27;;;7.10;99.90;;;;;;5032740;28;20129;-69
2022/03/22 02:38:15;;;;;;;47.58;29.90;;;7.00;99.90;;;;;;5051054;28;20052;-69
2022/03/22 02:40:41;;;;;;;51.38;32.58;;;7.00;99.90;;;;;;5050884;28;20099;-68
2022/03/22 02:43:08;;;;;;;58.05;32.17;;;7.00;99.90;;;;;;5034237;28;20052;-68
2022/03/22 02:45:33;;;;;;;51.55;30.58;;;7.00;99.90;;;;;;5034315;28;20049;-69
2022/03/22 02:47:59;;;;;;;49.72;31.50;;;;;;;;;;5050635;28;20037;-69
2022/03/22 02:50:25;;;;;;;55.08;31.13;;;;;;;;;;5050587;28;20041;-69
2022/03/22 02:52:51;;;;;;;46.92;28.80;;;6.90;99.90;;;;;;5047152;28;20079;-68
2022/03/22 02:55:16;;;;;;;51.97;30.00;;;6.80;99.90;;;;;;5034104;28;20068;-69
2022/03/22 02:57:43;;;;;;;51.88;29.42;;;6.70;99.90;;;;;;5050681;28;20037;-69
2022/03/22 03:00:11;;;;;;;50.08;30.30;;;7.00;99.90;;;;;;5050233;28;20044;-70
2022/03/22 03:02:41;;;;;;;59.83;32.28;;;6.50;99.90;;;;;;5050556;28;20033;-68
2022/03/22 03:05:08;;;;;;;56.03;31.50;;;;;;;;;;5050568;28;20087;-68
2022/03/22 03:07:34;;;;;;;54.67;32.55;;;6.70;99.90;;;;;;5050474;28;20403;-68
2022/03/22 03:10:00;;;;;;;51.63;29.80;;;;;;;;;;5050082;28;20045;-69
2022/03/22 03:12:26;;;;;;;50.88;30.15;;;;;;;;;;5050333;28;20468;-69
2022/03/22 03:14:51;;;;;;;51.72;31.77;;;;;;;;;;5050621;28;20406;-68
2022/03/22 03:17:17;;;;;;;53.47;31.50;;;;;;;;;;5050669;28;20148;-69
2022/03/22 03:19:43;;;;;;;48.85;30.00;;;;;;;;;;5049943;28;20048;-69
2022/03/22 03:22:09;;;;;;;48.42;28.45;;;6.50;99.90;;;;;;5033988;28;20049;-69
2022/03/22 03:24:35;;;;;;;49.55;29.55;;;6.60;99.90;;;;;;5013756;28;20411;-68
2022/03/22 03:27:01;;;;;;;51.70;29.10;;;6.50;99.90;;;;;;5030302;28;20407;-69
2022/03/22 03:29:27;;;;;;;48.33;29.58;;;6.60;99.90;;;;;;5030158;28;20037;-69
2022/03/22 03:31:53;;;;;;;51.05;30.63;;;;;;;;;;5031496;28;20049;-68
2022/03/22 03:34:19;;;;;;;48.15;29.10;;;6.50;99.90;;;;;;5018956;28;20033;-68
2022/03/22 03:36:45;;;;;;;49.47;29.45;;;;;;;;;;5049954;28;20047;-70
2022/03/22 03:39:11;;;;;;;49.83;29.77;;;6.40;99.90;;;;;;5049849;28;20036;-68
2022/03/22 03:47:18;;;;;;;48.42;30.98;;;6.30;99.90;;;;;;5050552;28;20441;-67
2022/03/22 03:49:45;;;;;;;50.63;31.52;;;;;;;;;;5050074;28;20041;-68
2022/03/22 03:52:17;;;;;;;53.78;31.10;;;6.20;99.90;;;;;;5049933;28;20087;-69
2022/03/22 03:54:43;;;;;;;50.65;29.95;;;;;;;;;;5049986;28;20036;-68
2022/03/22 03:57:10;;;;;;;51.53;30.23;;;;;;;;;;5049911;28;20123;-68
2022/03/22 03:59:36;;;;;;;56.88;33.33;;;;;;;;;;5049637;28;20457;-69
2022/03/22 04:02:03;;;;;;;55.92;29.95;;;6.20;99.90;;;;;;5033399;28;20048;-68
2022/03/22 04:04:29;;;;;;;54.25;32.38;;;6.30;99.90;;;;;;5049878;28;20053;-68
2022/03/22 04:06:56;;;;;;;51.80;31.15;;;;;;;;;;5033189;28;20045;-69
2022/03/22 04:09:21;;;;;;;58.00;30.55;;;6.50;99.90;;;;;;5049393;28;20091;-68
2022/03/22 04:11:47;;;;;;;54.90;34.92;;;6.30;99.90;;;;;;5050038;28;20041;-69
2022/03/22 04:14:13;;;;;;;53.97;32.85;;;6.60;99.90;;;;;;5049482;28;20506;-69
2022/03/22 04:16:40;;;;;;;54.13;31.60;;;6.40;99.90;;;;;;5050004;28;20086;-69
2022/03/22 04:19:08;;;;;;;56.63;32.97;;;6.50;99.90;;;;;;5049372;28;20091;-69
2022/03/22 04:21:38;;;;;;;54.42;33.10;;;6.50;99.90;;;;;;5022189;28;20055;-69
2022/03/22 04:24:08;;;;;;;56.58;32.78;;;;;;;;;;5029979;28;20562;-69
2022/03/22 04:26:35;;;;;;;53.15;30.48;;;6.50;99.90;;;;;;5012966;28;20041;-69
2022/03/22 04:34:31;;;;;;;49.70;29.38;;;;;;;;;;5036437;28;20124;-68
2022/03/22 04:36:57;;;;;;;53.65;31.50;;;6.50;99.90;;;;;;5049422;28;20106;-67
2022/03/22 04:39:24;;;;;;;54.65;32.42;;;6.50;99.90;;;;;;5049133;28;20402;-68
2022/03/22 04:41:50;;;;;;;52.42;31.35;;;;;;;;;;5049490;28;20044;-68
2022/03/22 04:44:17;;;;;;;56.30;31.20;;;6.60;99.90;;;;;;5050051;28;20411;-69
2022/03/22 04:46:43;;;;;;;51.22;31.77;;;6.50;99.90;;;;;;5049860;28;20048;-69
2022/03/22 04:49:09;;;;;;;51.78;32.13;;;;;;;;;;5049239;28;20037;-68
2022/03/22 04:57:03;;;;;;;54.55;31.67;;;6.40;99.90;;;;;;5053188;28;20040;-69
2022/03/22 04:59:29;;;;;;;56.20;32.95;;;;;;;;;;5052506;28;20490;-69
2022/03/22 05:01:55;;;;;;;56.70;32.22;;;;;;;;;;5052831;28;20041;-68
2022/03/22 05:04:21;;;;;;;57.17;32.05;;;6.40;99.90;;;;;;5052879;28;20045;-68
2022/03/22 05:06:46;;;;;;;54.00;32.60;;;6.50;99.90;;;;;;5052766;28;20041;-68
2022/03/22 05:09:13;;;;;;;58.05;32.63;;;6.40;99.90;;;;;;5052388;28;20086;-67
2022/03/22 05:11:39;;;;;;;53.30;31.65;;;;;;;;;;5052889;28;20048;-68
2022/03/22 05:14:05;;;;;;;52.50;31.55;;;6.40;99.90;;;;;;5054270;28;20033;-68
2022/03/22 05:16:31;;;;;;;54.28;32.50;;;6.20;99.90;;;;;;5052790;28;20486;-68
2022/03/22 05:18:57;;;;;;;55.50;32.70;;;6.40;99.90;;;;;;5052467;28;20037;-67
2022/03/22 05:21:24;;;;;;;53.28;31.92;;;6.40;99.90;;;;;;5042794;28;20041;-68
2022/03/22 05:23:50;;;;;;;51.20;30.92;;;;;;;;;;5032553;28;20037;-68
2022/03/22 05:26:16;;;;;;;61.75;35.20;;;6.30;99.90;;;;;;5032633;28;20100;-68
2022/03/22 05:28:45;;;;;;;54.17;32.58;;;;;;;;;;5032180;28;20130;-68
2022/03/22 05:31:12;;;;;;;58.50;33.72;;;6.30;99.90;;;;;;5032251;28;20033;-68
2022/03/22 05:33:39;;;;;;;57.22;35.20;;;;;;;;;;5032324;28;20046;-68
2022/03/22 05:36:06;;;;;;;52.42;32.42;;;6.30;99.90;;;;;;5052186;28;20135;-68
2022/03/22 05:38:31;;;;;;;52.53;32.78;;;6.30;99.90;;;;;;5052234;28;20573;-68
2022/03/22 05:40:58;;;;;;;51.40;32.22;;;6.30;99.90;;;;;;5051750;28;20045;-68
2022/03/22 05:43:26;;;;;;;55.42;33.17;;;6.20;99.90;;;;;;5053417;28;20051;-68
2022/03/22 05:45:52;;;;;;;54.20;32.72;;;6.30;99.90;;;;;;5053124;28;20044;-69
2022/03/22 05:48:22;;;;;;;53.17;32.90;;;6.30;99.90;;;;;;5035155;28;20131;-68
2022/03/22 05:50:48;;;;;;;52.33;31.65;;;6.30;99.90;;;;;;5051602;28;20498;-69
2022/03/22 05:53:14;;;;;;;53.13;32.58;;;;;;;;;;5048443;28;20037;-69
2022/03/22 05:55:40;;;;;;;52.95;31.35;;;;;;;;;;5051849;28;20629;-69
2022/03/22 05:58:06;;;;;;;55.60;33.63;;;;;;;;;;5051670;28;20504;-69
2022/03/22 06:00:32;;;;;;;58.35;32.88;;;6.20;99.90;;;;;;5034808;28;20053;-67
2022/03/22 06:02:59;;;;;;;53.97;32.67;;;6.30;99.90;;;;;;5034989;28;20037;-67
2022/03/22 06:05:25;;;;;;;53.88;31.38;;;;;;;;;;5050911;28;20037;-69
2022/03/22 06:07:51;;;;;;;59.00;34.35;;;;;;;;;;5051482;28;20102;-68
2022/03/22 06:10:17;;;;;;;54.83;30.98;;;;;;;;;;5034691;28;20483;-68
2022/03/22 06:12:48;;;;;;;55.28;33.63;;;6.50;99.90;;;;;;5051422;28;20134;-69
2022/03/22 06:15:15;;;;;;;53.75;31.42;;;6.50;99.90;;;;;;5051508;28;20415;-69
2022/03/22 06:17:49;;;;;;;59.90;33.30;;;6.40;99.90;;;;;;5051432;28;20048;-69
2022/03/22 06:20:17;;;;;;;53.45;32.47;;;6.50;99.90;;;;;;5050732;28;20144;-69
2022/03/22 06:22:45;;;;;;;61.72;33.47;;;;;;;;;;5031657;28;20045;-69
2022/03/22 06:25:11;;;;;;;53.13;32.20;;;;;;;;;;5031255;28;20049;-69
2022/03/22 06:27:38;;;;;;;58.42;33.45;;;;;;;;;;5031128;28;20542;-68
2022/03/22 06:30:06;;;;;;;53.15;31.58;;;6.70;99.90;;;;;;5030691;28;20037;-69
2022/03/22 06:32:39;;;;;;;56.10;32.65;;;6.80;99.90;;;;;;5031124;28;20104;-69
2022/03/22 06:35:05;;;;;;;55.85;31.45;;;6.80;99.90;;;;;;5042815;28;20051;-69
2022/03/22 06:37:31;;;;;;;58.88;32.92;;;;;;;;;;5051011;28;20041;-69
2022/03/22 06:39:56;;;;;;;55.72;32.13;;;6.90;99.90;;;;;;5050342;28;20041;-69
2022/03/22 06:42:22;;;;;;;56.17;31.52;;;6.90;99.90;;;;;;5034481;28;20415;-68
2022/03/22 06:44:48;;;;;;;56.92;32.88;;;6.90;99.90;;;;;;5050957;28;20502;-69
2022/03/22 06:47:14;;;;;;;52.10;30.88;;;;;;;;;;5050797;28;20564;-69
2022/03/22 06:49:40;;;;;;;55.92;32.22;;;7.20;99.90;;;;;;5050534;28;20037;-69
2022/03/22 06:52:06;;;;;;;48.08;30.45;;;7.00;99.90;;;;;;5044879;28;20037;-68
2022/03/22 06:54:32;;;;;;;57.28;34.03;;;7.20;99.90;;;;;;5027964;28;20051;-68
2022/03/22 06:56:58;;;;;;;56.25;32.88;;;;;;;;;;5042085;28;20037;-68
2022/03/22 06:59:26;;;;;;;60.42;34.55;;;;;;;;;;5043005;28;20049;-69
2022/03/22 07:01:52;;;;;;;53.75;32.35;;;;;;;;;;5049508;28;20494;-69
2022/03/22 07:04:18;;;;;;;54.60;33.15;;;;;;;;;;5051383;28;20304;-69
2022/03/22 07:06:46;;;;;;;55.78;32.53;;;;;;;;;;5038890;28;20053;-68
2022/03/22 07:09:12;;;;;;;49.25;30.25;;;;;;;;;;5044259;28;20033;-68
2022/03/22 07:11:49;;;;;;;55.75;33.38;;;;;;;;;;5045016;28;20041;-69
2022/03/22 07:14:17;;;;;;;53.58;31.48;;;7.40;99.90;;;;;;5031038;28;20511;-69
2022/03/22 07:16:47;;;;;;;58.85;33.00;;;;;;;;;;5018613;28;20040;-69
2022/03/22 07:19:13;;;;;;;64.30;32.95;;;;;;;;;;5032732;28;20563;-69
2022/03/22 07:21:39;;;;;;;54.75;31.25;;;;;;;;;;5030694;28;20041;-69
2022/03/22 07:24:05;;;;;;;47.67;29.52;;;;;;;;;;5040077;28;20083;-71
2022/03/22 07:26:31;;;;;;;49.35;29.10;;;;;;;;;;5035805;28;20038;-70
2022/03/22 07:28:57;;;;;;;54.95;32.35;;;;;;;;;;5039804;28;20109;-70
2022/03/22 07:31:23;;;;;;;51.72;32.53;;;;;;;;;;5038265;28;20151;-70
2022/03/22 07:33:49;;;;;;;51.92;30.08;;;8.30;99.90;;;;;;5039589;28;20037;-71
2022/03/22 07:36:15;;;;;;;47.00;28.35;;;;;;;;;;5038850;28;20402;-70
2022/03/22 07:38:41;;;;;;;56.72;32.58;;;8.50;99.90;;;;;;5047374;28;20048;-69
2022/03/22 07:41:07;;;;;;;50.58;29.70;;;;;;;;;;5042952;28;20036;-69
2022/03/22 07:43:33;;;;;;;52.60;30.13;;;;;;;;;;5046604;28;20132;-69
2022/03/22 07:45:59;;;;;;;47.40;30.60;;;;;;;;;;5047042;28;20053;-67
2022/03/22 07:48:25;;;;;;;57.45;31.08;;;8.80;99.90;;;;;;5050857;28;20099;-68
2022/03/22 07:53:35;;;;;;;55.72;30.95;;;;;;;;;;5028871;28;20130;-68
2022/03/22 07:56:01;;;;;;;51.60;30.85;;;9.10;99.90;;;;;;5031119;28;20041;-68
2022/03/22 07:58:27;;;;;;;52.60;30.02;;;;;;;;;;5049439;28;20494;-68
2022/03/22 08:00:52;;;;;;;49.50;30.45;;;9.10;99.90;;;;;;5050534;28;20171;-68
2022/03/22 08:03:18;;;;;;;51.13;30.13;;;9.30;99.90;;;;;;5050683;28;20246;-68
2022/03/22 08:05:47;;;;;;;52.30;31.13;;;9.30;99.90;;;;;;5050159;28;20060;-68
2022/03/22 08:08:14;;;;;;;56.70;31.63;;;9.40;99.90;;;;;;5049972;28;20083;-68
2022/03/22 08:10:40;;;;;;;49.60;30.77;;;9.30;99.90;;;;;;5049692;28;20556;-69
2022/03/22 08:13:06;;;;;;;50.38;29.85;;;;;;;;;;5050217;28;20041;-68
2022/03/22 08:15:32;;;;;;;50.22;29.95;;;;;;;;;;5050207;28;20033;-68
2022/03/22 08:17:58;;;;;;;46.80;29.25;;;9.50;99.90;;;;;;5033016;28;20040;-70
2022/03/22 08:20:27;;;;;;;53.08;30.60;;;9.60;99.90;;;;;;5051185;28;20415;-69
2022/03/22 08:22:59;;;;;;;48.92;29.05;;;9.60;99.90;;;;;;5051164;28;20105;-69
2022/03/22 08:25:29;;;;;;;50.03;30.35;;;9.70;99.90;;;;;;5049954;28;20047;-69
2022/03/22 08:27:57;;;;;;;56.47;31.42;;;9.80;99.90;;;;;;5051669;28;20045;-69
2022/03/22 08:30:23;;;;;;;48.60;30.85;;;9.90;99.90;;;;;;5053062;28;20041;-69
2022/03/22 08:32:50;;;;;;;46.60;29.27;;;10.10;99.90;;;;;;5053616;28;20041;-69
2022/03/22 08:35:17;;;;;;;49.80;29.77;;;10.20;99.90;;;;;;5037157;28;20140;-69
2022/03/22 08:37:43;;;;;;;49.25;31.38;;;;;;;;;;5053254;28;20041;-69
2022/03/22 08:40:10;;;;;;;48.17;30.52;;;;;;;;;;5036508;28;20502;-69
2022/03/22 08:42:37;;;;;;;48.92;29.65;;;;;;;;;;5053286;28;20041;-69
2022/03/22 08:45:06;;;;;;;45.17;29.48;;;10.30;99.90;;;;;;5053426;28;20071;-69
2022/03/22 08:47:34;;;;;;;49.35;29.95;;;10.20;99.90;;;;;;5053367;28;20462;-69
2022/03/22 08:50:00;;;;;;;54.67;30.15;;;;;;;;;;5052549;28;20128;-69
2022/03/22 08:52:26;;;;;;;46.60;29.20;;;;;;;;;;5042201;28;20049;-68
2022/03/22 08:54:52;;;;;;;48.88;29.30;;;10.40;99.90;;;;;;5043860;28;20487;-69
2022/03/22 08:57:18;;;;;;;51.13;30.45;;;10.40;99.90;;;;;;5042547;28;20041;-69
2022/03/22 08:59:43;;;;;;;45.78;28.40;;;10.40;99.90;;;;;;5041250;28;20037;-69
2022/03/22 09:02:09;;;;;;;46.53;27.92;;;;;;;;;;5035930;28;20045;-69
2022/03/22 09:07:19;;;;;;;47.75;29.63;;;;;;;;;;5032719;28;20075;-69
2022/03/22 09:09:45;;;;;;;43.72;29.52;;;;;;;;;;5039638;28;20546;-69
2022/03/22 09:12:12;;;;;;;46.72;28.95;;;;;;;;;;5046265;28;20033;-69
2022/03/22 09:14:38;;;;;;;44.97;29.40;;;;;;;;;;5043886;28;20511;-69
2022/03/22 09:17:05;;;;;;;45.55;29.38;;;10.70;99.90;;;;;;5043504;28;20045;-69
2022/03/22 09:19:33;;;;;;;49.10;30.85;;;;;;;;;;5035517;28;20079;-69
2022/03/22 09:22:00;;;;;;;47.80;27.83;;;;;;;;;;5052712;28;20053;-70
2022/03/22 09:24:25;;;;;;;44.03;28.73;;;10.90;99.90;;;;;;5052430;28;20045;-69
2022/03/22 09:26:51;;;;;;;47.03;29.90;;;11.00;99.90;;;;;;5052378;28;20047;-70
2022/03/22 09:29:17;;;;;;;42.53;28.77;;;;;;;;;;5051224;28;20036;-69
2022/03/22 09:31:43;;;;;;;47.25;28.70;;;;;;;;;;5052327;28;20041;-69
2022/03/22 09:34:13;;;;;;;46.35;28.52;;;;;;;;;;5051904;28;20156;-67
2022/03/22 09:36:38;;;;;;;46.65;28.50;;;11.70;99.90;;;;;;5052262;28;20041;-68
2022/03/22 09:39:05;;;;;;;53.85;29.20;;;11.80;99.90;;;;;;5034645;28;20044;-67
2022/03/22 09:41:31;;;;;;;51.80;29.42;;;11.80;99.90;;;;;;5046777;28;20083;-65
2022/03/22 09:43:58;;;;;;;46.38;28.17;;;;;;;;;;5042724;28;20056;-67
2022/03/22 09:46:24;;;;;;;43.53;27.92;;;;;;;;;;5052260;28;20380;-68
2022/03/22 09:48:50;;;;;;;43.50;27.63;;;;;;;;;;5051480;28;20048;-67
2022/03/22 09:54:01;;;;;;;44.13;27.45;;;12.40;99.90;;;;;;5051875;28;20048;-68
2022/03/22 09:56:30;;;;;;;45.28;27.05;;;12.40;99.90;;;;;;5051710;28;20037;-68
2022/03/22 09:59:00;;;;;;;42.78;28.10;;;12.60;99.90;;;;;;5051249;28;20044;-68
2022/03/22 10:01:26;;;;;;;46.80;29.02;;;;;;;;;;5051944;28;20411;-68
2022/03/22 10:04:00;;;;;;;41.35;27.67;;;12.90;99.90;;;;;;5053056;28;20090;-68
2022/03/22 10:06:28;;;;;;;45.38;27.92;;;13.10;99.90;;;;;;5051430;28;20483;-68
2022/03/22 10:08:54;;;;;;;41.80;27.20;;;;;;;;;;5051352;28;20087;-67
2022/03/22 10:11:20;;;;;;;43.85;26.80;;;;;;;;;;5051770;28;20526;-69
2022/03/22 10:13:53;;;;;;;39.95;26.77;;;13.50;99.90;;;;;;5028827;28;20068;-67
2022/03/22 10:16:19;;;;;;;42.03;25.88;;;13.50;99.90;;;;;;5032091;28;20076;-68
2022/03/22 10:18:44;;;;;;;41.70;25.00;;;13.40;99.90;;;;;;5051301;28;20083;-68
2022/03/22 10:21:10;;;;;;;43.60;25.90;;;;;;;;;;5034524;28;20617;-68
2022/03/22 10:23:51;;;;;;;38.65;25.15;;;13.60;99.90;;;;;;5051505;28;20090;-68
2022/03/22 10:26:17;;;;;;;37.65;23.45;;;13.90;99.90;;;;;;5051498;28;20048;-68
2022/03/22 10:28:51;;;;;;;39.83;24.33;;;13.90;99.90;;;;;;5051193;28;20037;-68
2022/03/22 10:31:17;;;;;;;37.33;24.75;;;14.00;99.90;;;;;;5051645;28;20033;-68
2022/03/22 10:33:53;;;;;;;39.40;24.83;;;14.10;99.90;;;;;;5051114;28;20053;-68
2022/03/22 10:36:25;;;;;;;42.10;25.23;;;14.00;99.90;;;;;;5049527;28;20239;-68
2022/03/22 10:38:54;;;;;;;35.25;23.20;;;14.30;99.90;;;;;;5028075;28;20494;-67
2022/03/22 10:41:25;;;;;;;34.95;22.63;;;14.20;99.90;;;;;;5050984;28;20037;-68
2022/03/22 10:44:01;;;;;;;44.08;23.25;;;14.40;99.90;;;;;;5051037;28;20045;-68
2022/03/22 10:46:27;;;;;;;36.67;22.67;;;14.60;99.90;;;;;;5044563;28;20048;-68
2022/03/22 10:49:05;;;;;;;36.72;23.52;;;14.70;99.90;;;;;;5030667;28;20053;-67
2022/03/22 10:51:44;;;;;;;33.35;21.10;;;14.90;99.90;;;;;;5030574;28;20041;-70
2022/03/22 10:54:17;;;;;;;36.25;22.38;;;14.90;99.90;;;;;;5014466;28;20123;-69
2022/03/22 10:56:48;;;;;;;35.47;21.90;;;14.80;99.90;;;;;;5031182;28;20419;-69
2022/03/22 10:59:16;;;;;;;32.22;21.95;;;14.80;99.90;;;;;;5030154;28;20487;-69
2022/03/22 11:01:43;;;;;;;33.15;21.42;;;15.00;99.90;;;;;;5024727;28;20096;-68
2022/03/22 11:04:10;;;;;;;34.65;20.50;;;15.00;99.90;;;;;;5039304;28;20042;-69
2022/03/22 11:06:38;;;;;;;34.72;21.38;;;14.70;99.90;;;;;;5032540;28;20411;-68
2022/03/22 11:09:05;;;;;;;35.53;21.63;;;15.00;99.90;;;;;;5030428;28;20056;-68
2022/03/22 11:11:31;;;;;;;34.65;22.67;;;15.10;99.90;;;;;;5035624;28;20030;-70
2022/03/22 11:13:57;;;;;;;37.65;22.02;;;15.50;99.90;;;;;;5014603;28;20095;-69
2022/03/22 11:16:26;;;;;;;34.17;21.52;;;15.50;99.90;;;;;;5035702;28;20124;-68
2022/03/22 11:18:54;;;;;;;37.13;22.45;;;15.50;99.90;;;;;;5049833;28;20060;-68
2022/03/22 11:21:20;;;;;;;36.25;21.90;;;;;;;;;;5043797;28;20037;-70
2022/03/22 11:23:47;;;;;;;35.38;23.20;;;;;;;;;;5038107;28;20041;-73
2022/03/22 11:26:16;;;;;;;36.13;22.95;;;15.60;99.90;;;;;;5035821;28;20059;-72
2022/03/22 11:28:42;;;;;;;35.53;22.45;;;;;;;;;;5032823;28;20121;-72
2022/03/22 11:31:09;;;;;;;35.15;23.58;;;15.90;99.90;;;;;;5029051;28;20056;-71
2022/03/22 11:36:26;;;;;;;28.60;20.52;;;16.10;99.90;;;;;;5028285;28;20132;-71
2022/03/22 11:38:56;;;;;;;30.70;21.35;;;16.00;99.90;;;;;;5045792;28;20506;-69
2022/03/22 11:44:36;;;;;;;34.10;22.20;;;16.20;99.90;;;;;;5048338;28;20067;-72
2022/03/22 11:47:04;;;;;;;34.25;21.33;;;16.20;99.90;;;;;;5032981;28;20545;-71
2022/03/22 11:49:30;;;;;;;35.83;22.08;;;16.40;99.90;;;;;;5050015;28;20033;-71
2022/03/22 11:52:11;;;;;;;34.97;20.50;;;16.30;99.90;;;;;;5051070;28;20487;-71
2022/03/22 11:54:37;;;;;;;33.65;21.77;;;16.40;99.90;;;;;;5033933;28;20041;-71
2022/03/22 11:57:04;;;;;;;26.73;18.33;;;16.50;99.90;;;;;;5050612;28;20047;-71
2022/03/22 11:59:53;;;;;;;32.65;20.60;;;16.50;99.90;;;;;;5050909;28;20036;-71
2022/03/22 12:02:27;;;;;;;33.85;20.45;;;16.60;99.90;;;;;;5050434;28;20127;-71
2022/03/22 12:04:55;;;;;;;32.58;21.33;;;16.70;99.90;;;;;;5054323;28;20091;-71
2022/03/22 12:07:38;;;;;;;31.85;21.27;;;16.90;99.90;;;;;;5053865;28;20072;-71
2022/03/22 12:10:13;;;;;;;33.05;21.17;;;17.00;99.90;;;;;;5037102;28;20080;-71
2022/03/22 12:12:41;;;;;;;33.25;21.58;;;17.00;99.90;;;;;;5054184;28;20048;-71
2022/03/22 12:15:09;;;;;;;31.55;20.50;;;17.10;99.90;;;;;;5053895;28;20052;-71
2022/03/22 12:17:36;;;;;;;28.27;19.55;;;17.20;99.90;;;;;;5053630;28;20131;-71
2022/03/22 12:20:08;;;;;;;34.83;22.17;;;17.20;99.90;;;;;;5036903;28;20037;-70
2022/03/22 12:22:38;;;;;;;30.13;20.58;;;17.40;99.90;;;;;;5037493;28;20045;-71
2022/03/22 12:25:04;;;;;;;32.30;20.08;;;17.20;99.90;;;;;;5054036;28;20036;-71
2022/03/22 12:27:30;;;;;;;29.75;20.73;;;17.30;99.90;;;;;;5053444;28;20502;-72
2022/03/22 12:29:56;;;;;;;37.00;21.45;;;17.30;99.90;;;;;;5036370;28;20065;-71
2022/03/22 12:32:22;;;;;;;33.10;21.88;;;17.50;99.90;;;;;;5050282;28;21240;-69
2022/03/22 12:34:49;;;;;;;30.50;21.02;;;17.40;99.70;;;;;;5043217;28;20513;-70
2022/03/22 12:37:16;;;;;;;34.22;22.30;;;17.70;99.90;;;;;;5042875;28;20083;-70
2022/03/22 12:39:44;;;;;;;34.70;20.73;;;17.60;99.90;;;;;;5053112;28;20426;-70
2022/03/22 12:42:12;;;;;;;31.90;21.38;;;17.50;99.80;;;;;;5053324;28;20084;-69
2022/03/22 12:44:38;;;;;;;33.50;22.13;;;17.70;99.90;;;;;;5053076;28;20091;-69
2022/03/22 12:47:05;;;;;;;33.03;20.55;;;17.40;99.90;;;;;;5042057;28;20037;-69
2022/03/22 12:49:33;;;;;;;32.55;20.63;;;17.60;99.50;;;;;;5016291;28;20038;-71
2022/03/22 12:52:00;;;;;;;30.55;20.25;;;17.80;99.80;;;;;;5020905;28;20059;-71
2022/03/22 12:54:41;;;;;;;27.35;18.10;;;17.80;99.10;;;;;;5036522;28;20098;-69
2022/03/22 12:57:17;;;;;;;29.92;19.50;;;17.90;99.40;;;;;;5033153;28;20068;-69
2022/03/22 12:59:43;;;;;;;31.85;21.05;;;18.10;99.60;;;;;;5032546;28;20072;-70
2022/03/22 13:02:10;;;;;;;32.55;20.90;;;18.20;99.50;;;;;;5033152;28;20041;-69
2022/03/22 13:04:46;;;;;;;28.85;19.67;;;17.90;98.90;;;;;;5016684;28;20072;-69
2022/03/22 13:07:22;;;;;;;33.20;19.70;;;17.90;99.10;;;;;;5042062;28;20034;-69
2022/03/22 13:12:34;;;;;;;28.67;18.77;;;18.20;98.50;;;;;;5042270;28;20040;-67
2022/03/22 13:15:05;;;;;;;28.77;18.35;;;18.40;98.30;;;;;;5036102;28;20041;-70
2022/03/22 13:17:52;;;;;;;28.48;18.60;;;18.40;97.90;;;;;;5033013;28;20526;-70
2022/03/22 13:20:24;;;;;;;31.35;20.15;;;18.40;97.70;;;;;;5032668;28;20053;-70
2022/03/22 13:23:04;;;;;;;32.80;19.10;;;18.50;97.90;;;;;;5032874;28;20056;-70
2022/03/22 13:25:35;;;;;;;29.63;19.23;;;18.30;97.60;;;;;;5016386;28;20048;-69
2022/03/22 13:28:12;;;;;;;32.97;18.30;;;18.30;97.90;;;;;;5015902;28;20045;-69
2022/03/22 13:30:42;;;;;;;36.28;20.40;;;18.60;97.10;;;;;;5033715;28;20038;-70
2022/03/22 13:33:20;;;;;;;29.17;18.73;;;18.40;97.30;;;;;;5032857;28;20042;-70
2022/03/22 13:35:53;;;;;;;31.02;18.30;;;18.70;97.70;;;;;;5032857;28;20585;-68
2022/03/22 13:38:18;;;;;;;;;;;18.70;97.50;;;;;;5045881;28;20065;-69
2022/03/22 13:40:45;;;;;;;27.80;17.60;;;18.60;97.20;;;;;;5052193;28;19916;-69
2022/03/22 13:43:12;;;;;;;26.45;17.60;;;18.60;97.20;;;;;;5071459;22;20098;-70
2022/03/22 13:45:42;;;;;;;32.60;17.98;;;18.80;97.30;;;;;;5022804;28;20025;-69